createdAt,value
2023-12-13T00:02:50.624Z,98799.13
2023-12-13T00:05:52.425Z,98800.97
2023-12-13T00:08:54.164Z,98804.59
2023-12-13T00:11:55.907Z,98800.41
2023-12-13T00:14:57.610Z,98794.00
2023-12-13T00:18:00.771Z,98798.22
2023-12-13T00:21:02.581Z,98797.31
2023-12-13T00:24:04.842Z,98792.06
2023-12-13T00:27:07.296Z,98796.50
2023-12-13T00:30:10.726Z,98790.22
2023-12-13T00:33:13.841Z,98793.00
2023-12-13T00:36:16.079Z,98784.19
2023-12-13T00:39:17.826Z,98789.31
2023-12-13T00:42:19.552Z,98785.81
2023-12-13T00:45:21.496Z,98782.94
2023-12-13T00:48:24.661Z,98785.22
2023-12-13T00:51:26.972Z,98781.91
2023-12-13T00:54:28.682Z,98777.13
2023-12-13T00:57:30.608Z,98783.16
2023-12-13T01:00:32.542Z,98787.81
2023-12-13T01:03:35.824Z,98798.41
2023-12-13T01:06:37.564Z,98788.88
2023-12-13T01:09:40.408Z,98794.09
2023-12-13T01:12:45.312Z,98796.06
2023-12-13T01:15:47.156Z,98798.66
2023-12-13T01:18:50.301Z,98803.66
2023-12-13T01:21:52.043Z,98808.91
2023-12-13T01:24:53.913Z,98812.44
2023-12-13T01:27:59.277Z,98813.47
2023-12-13T01:31:06.368Z,98815.84
2023-12-13T01:34:09.339Z,98820.03
2023-12-13T01:37:11.103Z,98813.78
2023-12-13T01:40:13.004Z,98817.19
2023-12-13T01:43:21.658Z,98817.09
2023-12-13T01:46:23.491Z,98822.56
2023-12-13T01:49:27.192Z,98815.94
2023-12-13T01:52:29.742Z,98814.25
2023-12-13T01:55:31.813Z,98806.50
2023-12-13T01:58:37.888Z,98806.97
2023-12-13T02:01:40.224Z,98794.72
2023-12-13T02:04:44.188Z,98798.91
2023-12-13T02:07:45.898Z,98807.81
2023-12-13T02:10:48.713Z,98807.25
2023-12-13T02:13:51.018Z,98798.28
2023-12-13T02:16:54.300Z,98802.84
2023-12-13T02:19:57.384Z,98797.81
2023-12-13T02:23:00.499Z,98788.38
2023-12-13T02:26:03.753Z,98790.09
2023-12-13T02:29:05.647Z,98786.09
2023-12-13T02:32:07.653Z,98792.47
2023-12-13T02:35:09.543Z,98785.75
2023-12-13T02:38:12.658Z,98789.50
2023-12-13T02:41:14.360Z,98770.38
2023-12-13T02:44:16.176Z,98771.16
2023-12-13T02:47:18.018Z,98777.22
2023-12-13T02:50:20.202Z,98770.38
2023-12-13T02:53:24.446Z,98784.41
2023-12-13T02:56:26.769Z,98772.31
2023-12-13T02:59:28.488Z,98771.03
2023-12-13T03:02:30.259Z,98776.16
2023-12-13T03:05:31.964Z,98774.34
2023-12-13T03:08:37.314Z,98753.06
2023-12-13T03:11:40.575Z,98748.28
2023-12-13T03:14:42.425Z,98743.78
2023-12-13T03:17:44.196Z,98738.78
2023-12-13T03:20:46.120Z,98729.16
2023-12-13T03:23:49.199Z,98730.63
2023-12-13T03:26:50.884Z,98726.28
2023-12-13T03:29:53.124Z,98727.50
2023-12-13T03:32:54.889Z,98733.00
2023-12-13T03:35:57.229Z,98734.94
2023-12-13T03:39:00.307Z,98740.00
2023-12-13T03:42:02.076Z,98740.81
2023-12-13T03:45:04.650Z,98738.88
2023-12-13T03:48:06.474Z,98740.88
2023-12-13T03:51:08.331Z,98740.63
2023-12-13T03:54:11.545Z,98737.25
2023-12-13T03:57:13.295Z,98732.41
2023-12-13T04:00:15.203Z,98734.13
2023-12-13T04:03:17.043Z,98722.38
2023-12-13T04:06:19.021Z,98715.72
2023-12-13T04:09:22.791Z,98717.00
2023-12-13T04:12:24.462Z,98715.28
2023-12-13T04:15:26.123Z,98717.03
2023-12-13T04:18:28.075Z,98719.53
2023-12-13T04:21:29.828Z,98716.91
2023-12-13T04:24:32.902Z,98721.16
2023-12-13T04:27:35.781Z,98727.25
2023-12-13T04:30:37.755Z,98726.16
2023-12-13T04:33:39.614Z,98715.13
2023-12-13T04:36:41.441Z,98721.41
2023-12-13T04:39:44.591Z,98719.81
2023-12-13T04:42:46.400Z,98705.22
2023-12-13T04:45:48.128Z,98705.00
2023-12-13T04:48:50.006Z,98703.41
2023-12-13T04:51:51.763Z,98693.88
2023-12-13T04:54:56.757Z,98699.38
2023-12-13T04:57:58.716Z,98697.16
2023-12-13T05:01:00.454Z,98686.31
2023-12-13T05:04:02.418Z,98680.75
2023-12-13T05:07:05.035Z,98686.88
2023-12-13T05:10:09.154Z,98689.97
2023-12-13T05:13:11.004Z,98684.53
2023-12-13T05:16:12.864Z,98690.09
2023-12-13T05:19:14.680Z,98684.31
2023-12-13T05:22:16.493Z,98687.53
2023-12-13T05:25:19.734Z,98676.69
2023-12-13T05:28:21.848Z,98685.03
2023-12-13T05:31:24.484Z,98674.91
2023-12-13T05:34:26.257Z,98683.94
2023-12-13T05:37:27.970Z,98678.69
2023-12-13T05:40:32.900Z,98681.31
2023-12-13T05:43:36.612Z,98674.25
2023-12-13T05:46:38.318Z,98667.69
2023-12-13T05:49:40.120Z,98658.94
2023-12-13T05:52:41.911Z,98662.56
2023-12-13T05:55:44.984Z,98652.31
2023-12-13T05:58:46.777Z,98655.31
2023-12-13T06:01:48.749Z,98658.50
2023-12-13T06:04:50.530Z,98658.03
2023-12-13T06:07:52.511Z,98664.66
2023-12-13T06:10:57.909Z,98660.75
2023-12-13T06:13:59.774Z,98663.50
2023-12-13T06:17:01.615Z,98662.16
2023-12-13T06:20:04.620Z,98657.25
2023-12-13T06:23:06.441Z,98660.44
2023-12-13T06:26:09.500Z,98651.34
2023-12-13T06:29:12.354Z,98662.03
2023-12-13T06:32:14.156Z,98662.38
2023-12-13T06:35:16.066Z,98663.31
2023-12-13T06:38:17.934Z,98655.09
2023-12-13T06:41:21.000Z,98648.84
2023-12-13T06:44:23.336Z,98654.53
2023-12-13T06:47:26.849Z,98650.97
2023-12-13T06:50:29.597Z,98645.75
2023-12-13T06:53:31.246Z,98640.88
2023-12-13T06:56:34.260Z,98641.66
2023-12-13T06:59:35.976Z,98647.00
2023-12-13T07:02:38.029Z,98641.88
2023-12-13T07:05:40.032Z,98646.22
2023-12-13T07:08:41.840Z,98641.09
2023-12-13T07:11:45.421Z,98642.69
2023-12-13T07:14:47.160Z,98639.75
2023-12-13T07:17:49.091Z,98640.75
2023-12-13T07:20:50.905Z,98629.50
2023-12-13T07:23:52.746Z,98635.53
2023-12-13T07:26:55.761Z,98634.63
2023-12-13T07:29:57.474Z,98634.75
2023-12-13T07:32:59.230Z,98637.38
2023-12-13T07:36:01.088Z,98642.28
2023-12-13T07:39:04.090Z,98638.88
2023-12-13T07:42:07.359Z,98640.16
2023-12-13T07:45:11.888Z,98635.81
2023-12-13T07:48:21.732Z,98638.78
2023-12-13T07:51:29.203Z,98629.97
2023-12-13T07:54:30.974Z,98628.25
2023-12-13T07:57:33.993Z,98629.41
2023-12-13T08:00:36.509Z,98639.44
2023-12-13T08:03:38.260Z,98628.47
2023-12-13T08:06:40.093Z,98631.78
2023-12-13T08:09:41.841Z,98632.81
2023-12-13T08:12:45.125Z,98638.25
2023-12-13T08:15:49.344Z,98643.63
2023-12-13T08:18:51.342Z,98642.19
2023-12-13T08:21:53.925Z,98644.78
2023-12-13T08:24:55.710Z,98643.09
2023-12-13T08:27:58.771Z,98643.09
2023-12-13T08:31:09.060Z,98637.06
2023-12-13T08:34:19.278Z,98634.44
2023-12-13T08:37:22.418Z,98638.88
2023-12-13T08:40:24.308Z,98639.91
2023-12-13T08:43:27.521Z,98638.53
2023-12-13T08:46:29.286Z,98631.72
2023-12-13T08:49:31.046Z,98637.06
2023-12-13T08:52:33.115Z,98635.94
2023-12-13T08:55:34.885Z,98637.28
2023-12-13T08:58:38.046Z,98640.38
2023-12-13T09:01:40.771Z,98650.84
2023-12-13T09:04:42.788Z,98656.53
2023-12-13T09:07:44.779Z,98646.63
2023-12-13T09:10:47.243Z,98647.09
2023-12-13T09:13:50.505Z,98647.44
2023-12-13T09:16:52.397Z,98646.75
2023-12-13T09:19:54.204Z,98653.78
2023-12-13T09:22:56.068Z,98655.06
2023-12-13T09:26:00.207Z,98651.88
2023-12-13T09:29:03.986Z,98655.75
2023-12-13T09:32:06.221Z,98656.84
2023-12-13T09:35:08.111Z,98654.91
2023-12-13T09:38:10.399Z,98648.72
2023-12-13T09:41:13.066Z,98648.13
2023-12-13T09:44:18.127Z,98661.44
2023-12-13T09:47:22.547Z,98655.91
2023-12-13T09:50:25.564Z,98657.47
2023-12-13T09:53:30.349Z,98665.97
2023-12-13T09:56:32.036Z,98666.66
2023-12-13T09:59:36.795Z,98672.78
2023-12-13T10:02:38.673Z,98670.38
2023-12-13T10:05:45.754Z,98663.53
2023-12-13T10:08:54.567Z,98670.38
2023-12-13T10:11:56.922Z,98661.34
2023-12-13T10:15:10.891Z,98653.66
2023-12-13T10:18:12.745Z,98658.31
2023-12-13T10:21:15.267Z,98658.91
2023-12-13T10:24:17.018Z,98655.97
2023-12-13T10:27:19.050Z,98653.91
2023-12-13T10:30:22.198Z,98646.97
2023-12-13T10:33:23.942Z,98655.59
2023-12-13T10:36:27.160Z,98650.84
2023-12-13T10:39:29.327Z,98657.31
2023-12-13T10:42:32.849Z,98661.31
2023-12-13T10:45:36.617Z,98665.06
2023-12-13T10:48:38.747Z,98661.09
2023-12-13T10:51:40.914Z,98661.66
2023-12-13T10:54:43.226Z,98657.78
2023-12-13T10:57:45.795Z,98663.03
2023-12-13T11:00:49.899Z,98665.28
2023-12-13T11:03:58.266Z,98660.19
2023-12-13T11:07:09.284Z,98664.59
2023-12-13T11:10:13.601Z,98667.91
2023-12-13T11:13:22.499Z,98653.91
2023-12-13T11:16:26.908Z,98657.66
2023-12-13T11:19:37.035Z,98659.72
2023-12-13T11:22:44.009Z,98666.09
2023-12-13T11:25:50.414Z,98653.09
2023-12-13T11:28:55.604Z,98663.47
2023-12-13T11:32:00.497Z,98652.31
2023-12-13T11:35:13.457Z,98644.16
2023-12-13T11:38:15.995Z,98655.50
2023-12-13T11:41:18.418Z,98649.25
2023-12-13T11:44:20.749Z,98660.16
2023-12-13T11:47:23.928Z,98657.19
2023-12-13T11:50:26.110Z,98652.28
2023-12-13T11:53:27.886Z,98657.50
2023-12-13T11:56:29.676Z,98649.91
2023-12-13T11:59:31.396Z,98647.53
2023-12-13T12:02:34.693Z,98653.09
2023-12-13T12:05:36.563Z,98645.41
2023-12-13T12:08:40.406Z,98641.53
2023-12-13T12:11:42.161Z,98640.94
2023-12-13T12:14:46.229Z,98644.56
2023-12-13T12:17:49.470Z,98641.03
2023-12-13T12:20:51.277Z,98645.13
2023-12-13T12:23:53.257Z,98639.88
2023-12-13T12:26:55.616Z,98638.19
2023-12-13T12:29:57.499Z,98630.81
2023-12-13T12:33:00.901Z,98624.84
2023-12-13T12:36:03.145Z,98622.22
2023-12-13T12:39:05.124Z,98622.78
2023-12-13T12:42:07.385Z,98622.81
2023-12-13T12:45:09.273Z,98619.50
2023-12-13T12:48:13.497Z,98615.31
2023-12-13T12:51:15.476Z,98605.78
2023-12-13T12:54:17.251Z,98621.53
2023-12-13T12:57:18.988Z,98609.13
2023-12-13T13:00:21.272Z,98608.75
2023-12-13T13:03:25.719Z,98608.94
2023-12-13T13:06:27.510Z,98615.31
2023-12-13T13:09:29.268Z,98607.63
2023-12-13T13:12:31.994Z,98617.16
2023-12-13T13:15:33.840Z,98612.69
2023-12-13T13:18:37.036Z,98607.44
2023-12-13T13:21:38.789Z,98611.53
2023-12-13T13:24:41.299Z,98600.81
2023-12-13T13:27:45.528Z,98601.47
2023-12-13T13:30:47.284Z,98597.84
2023-12-13T13:33:50.505Z,98596.44
2023-12-13T13:36:52.299Z,98602.63
2023-12-13T13:39:54.244Z,98601.84
2023-12-13T13:42:56.129Z,98605.13
2023-12-13T13:45:57.846Z,98607.44
2023-12-13T13:49:01.670Z,98600.66
2023-12-13T13:52:03.649Z,98603.41
2023-12-13T13:55:07.096Z,98604.91
2023-12-13T13:58:08.833Z,98607.75
2023-12-13T14:01:10.963Z,98606.97
2023-12-13T14:04:14.605Z,98604.94
2023-12-13T14:07:16.294Z,98602.66
2023-12-13T14:10:18.375Z,98608.47
2023-12-13T14:13:21.805Z,98616.69
2023-12-13T14:16:23.873Z,98603.13
2023-12-13T14:19:27.322Z,98613.78
2023-12-13T14:22:29.358Z,98614.63
2023-12-13T14:25:31.225Z,98622.50
2023-12-13T14:28:33.067Z,98617.38
2023-12-13T14:31:34.868Z,98622.50
2023-12-13T14:34:38.024Z,98625.13
2023-12-13T14:37:44.085Z,98629.91
2023-12-13T14:40:48.278Z,98624.66
2023-12-13T14:43:50.539Z,98626.94
2023-12-13T14:46:52.475Z,98633.97
2023-12-13T14:49:55.657Z,98640.03
2023-12-13T14:52:58.028Z,98643.22
2023-12-13T14:56:00.168Z,98647.63
2023-12-13T14:59:02.063Z,98653.69
2023-12-13T15:02:04.700Z,98649.81
2023-12-13T15:05:09.593Z,98650.50
2023-12-13T15:08:11.335Z,98659.72
2023-12-13T15:11:13.170Z,98647.53
2023-12-13T15:14:17.497Z,98657.91
2023-12-13T15:17:19.480Z,98656.63
2023-12-13T15:20:22.798Z,98667.88
2023-12-13T15:23:25.601Z,98672.34
2023-12-13T15:26:28.061Z,98670.88
2023-12-13T15:29:29.833Z,98673.13
2023-12-13T15:32:31.626Z,98675.41
2023-12-13T15:35:35.302Z,98680.88
2023-12-13T15:38:38.314Z,98681.44
2023-12-13T15:41:40.109Z,98683.69
2023-12-13T15:44:42.023Z,98692.38
2023-12-13T15:47:43.943Z,98698.28
2023-12-13T15:50:47.199Z,98702.47
2023-12-13T15:53:48.939Z,98716.53
2023-12-13T15:56:50.726Z,98725.63
2023-12-13T15:59:52.560Z,98734.00
2023-12-13T16:02:54.349Z,98726.88
2023-12-13T16:05:57.568Z,98724.16
2023-12-13T16:08:59.268Z,98726.75
2023-12-13T16:12:01.022Z,98714.06
2023-12-13T16:22:35.741Z,98709.97
2023-12-13T16:25:37.593Z,98719.38
2023-12-13T16:28:39.362Z,98724.72
2023-12-13T16:31:41.333Z,98725.13
2023-12-13T16:34:43.190Z,98736.22
2023-12-13T16:37:46.377Z,98730.59
2023-12-13T16:40:48.280Z,98736.59
2023-12-13T16:43:50.158Z,98748.31
2023-12-13T16:46:52.263Z,98742.22
2023-12-13T16:49:54.224Z,98755.50
2023-12-13T16:52:57.502Z,98751.06
2023-12-13T16:56:02.314Z,98766.72
2023-12-13T16:59:07.173Z,98764.47
2023-12-13T17:02:09.769Z,98777.94
2023-12-13T17:05:11.914Z,98774.03
2023-12-13T17:08:15.272Z,98786.78
2023-12-13T17:11:17.721Z,98788.75
2023-12-13T17:14:20.055Z,98794.09
2023-12-13T17:17:21.873Z,98794.09
2023-12-13T17:20:24.011Z,98792.41
2023-12-13T17:23:27.403Z,98791.88
2023-12-13T17:26:29.311Z,98805.94
2023-12-13T17:29:37.684Z,98811.16
2023-12-13T17:32:40.315Z,98810.13
2023-12-13T17:35:43.275Z,98810.66
2023-12-13T17:38:47.307Z,98807.41
2023-12-13T17:41:49.251Z,98820.97
2023-12-13T17:44:50.994Z,98821.50
2023-12-13T17:47:53.006Z,98819.94
2023-12-13T17:50:54.886Z,98830.66
2023-12-13T17:53:57.991Z,98830.50
2023-12-13T17:57:01.064Z,98836.75
2023-12-13T18:00:04.348Z,98843.81
2023-12-13T18:03:06.697Z,98850.97
2023-12-13T18:06:09.204Z,98853.06
2023-12-13T18:09:12.386Z,98864.44
2023-12-13T18:12:14.612Z,98852.16
2023-12-13T18:15:16.441Z,98857.88
2023-12-13T18:18:20.310Z,98860.25
2023-12-13T18:21:28.761Z,98859.47
2023-12-13T18:24:31.943Z,98860.25
2023-12-13T18:27:33.736Z,98869.66
2023-12-13T18:30:35.599Z,98876.97
2023-12-13T18:33:37.630Z,98880.25
2023-12-13T18:36:39.769Z,98882.31
2023-12-13T18:39:44.986Z,98884.94
2023-12-13T18:42:46.547Z,98885.72
2023-12-13T18:45:48.975Z,98886.88
2023-12-13T18:48:51.549Z,98885.34
2023-12-13T18:51:54.353Z,98891.09
2023-12-13T18:54:57.688Z,98900.31
2023-12-13T18:57:59.694Z,98906.59
2023-12-13T19:01:01.720Z,98919.81
2023-12-13T19:04:04.190Z,98916.78
2023-12-13T19:07:06.019Z,98925.28
2023-12-13T19:10:11.016Z,98916.25
2023-12-13T19:13:12.771Z,98921.75
2023-12-13T19:16:14.787Z,98927.91
2023-12-13T19:19:18.265Z,98925.41
2023-12-13T19:22:20.790Z,98931.41
2023-12-13T19:25:23.913Z,98935.84
2023-12-13T19:28:25.629Z,98944.47
2023-12-13T19:31:27.953Z,98956.88
2023-12-13T19:34:36.951Z,98958.59
2023-12-13T19:37:41.054Z,98960.66
2023-12-13T19:40:44.753Z,98968.38
2023-12-13T19:43:49.442Z,98969.91
2023-12-13T19:46:51.340Z,98977.50
2023-12-13T19:49:54.474Z,98975.66
2023-12-13T19:52:57.300Z,98985.59
2023-12-13T19:56:00.907Z,98979.59
2023-12-13T19:59:02.839Z,98986.53
2023-12-13T20:02:05.766Z,98994.47
2023-12-13T20:05:08.002Z,98996.97
2023-12-13T20:08:10.037Z,98996.41
2023-12-13T20:11:13.605Z,98993.81
2023-12-13T20:14:15.636Z,99001.94
2023-12-13T20:17:17.626Z,99004.13
2023-12-13T20:20:19.408Z,99012.63
2023-12-13T20:23:21.148Z,99013.66
2023-12-13T20:26:24.297Z,99010.03
2023-12-13T20:29:26.184Z,99015.38
2023-12-13T20:32:27.988Z,99019.16
2023-12-13T20:35:29.862Z,99025.78
2023-12-13T20:38:31.600Z,99031.38
2023-12-13T20:41:34.832Z,99036.22
2023-12-13T20:44:37.021Z,99041.31
2023-12-13T20:47:40.150Z,99047.31
2023-12-13T20:50:43.298Z,99047.19
2023-12-13T20:53:45.118Z,99052.13
2023-12-13T20:56:48.286Z,99054.31
2023-12-13T20:59:50.004Z,99063.88
2023-12-13T21:02:51.793Z,99064.16
2023-12-13T21:05:53.541Z,99066.78
2023-12-13T21:08:55.373Z,99071.19
2023-12-13T21:11:58.535Z,99075.13
2023-12-13T21:15:00.392Z,99073.84
2023-12-13T21:18:02.318Z,99091.34
2023-12-13T21:21:04.746Z,99084.56
2023-12-13T21:24:14.900Z,99089.50
2023-12-13T21:27:21.881Z,99087.03
2023-12-13T21:30:23.889Z,99096.78
2023-12-13T21:33:25.753Z,99093.53
2023-12-13T21:36:27.655Z,99106.72
2023-12-13T21:39:29.541Z,99114.97
2023-12-13T21:42:33.171Z,99110.16
2023-12-13T21:45:35.190Z,99116.16
2023-12-13T21:48:37.134Z,99121.75
2023-12-13T21:51:40.740Z,99129.59
2023-12-13T21:54:42.540Z,99125.00
2023-12-13T21:57:45.669Z,99135.31
2023-12-13T22:00:47.507Z,99140.84
2023-12-13T22:03:53.008Z,99143.56
2023-12-13T22:06:54.765Z,99157.66
2023-12-13T22:09:56.756Z,99162.25
2023-12-13T22:12:59.922Z,99154.56
2023-12-13T22:16:02.501Z,99154.56
2023-12-13T22:19:22.751Z,99164.72
2023-12-13T22:22:24.721Z,99172.44
2023-12-13T22:25:26.677Z,99181.03
2023-12-13T22:28:29.968Z,99183.91
2023-12-13T22:31:31.858Z,99181.31
2023-12-13T22:34:33.755Z,99187.97
2023-12-13T22:37:35.535Z,99189.94
2023-12-13T22:40:37.555Z,99191.75
2023-12-13T22:43:40.752Z,99192.88
2023-12-13T22:46:44.092Z,99201.28
2023-12-13T22:49:46.059Z,99203.13
2023-12-13T22:52:47.973Z,99217.22
2023-12-13T22:55:49.836Z,99218.81
2023-12-13T22:58:53.196Z,99216.53
2023-12-13T23:01:57.888Z,99225.13
2023-12-13T23:05:01.741Z,99231.25
2023-12-13T23:08:04.175Z,99236.97
2023-12-13T23:11:06.560Z,99231.63
2023-12-13T23:14:12.646Z,99231.06
2023-12-13T23:17:14.762Z,99232.72
2023-12-13T23:20:16.756Z,99240.38
2023-12-13T23:23:18.824Z,99248.31
2023-12-13T23:26:20.845Z,99249.59
2023-12-13T23:29:24.025Z,99250.72
2023-12-13T23:32:26.096Z,99256.00
2023-12-13T23:35:28.031Z,99257.00
2023-12-13T23:38:29.877Z,99264.38
2023-12-13T23:41:31.801Z,99267.22
2023-12-13T23:44:35.518Z,99257.13
2023-12-13T23:47:37.302Z,99276.09
2023-12-13T23:50:39.079Z,99280.53
2023-12-13T23:53:43.447Z,99278.28
2023-12-13T23:56:45.943Z,99285.47
2023-12-13T23:59:48.996Z,99289.16
